Time;durP1;ratioP1;P1;durP2;ratioP2;P2;SDS_P1;SDS_P2;PMS_P1;PMS_P2;Temp;Humidity;BMP_temperature;BMP_pressure;BME280_temperature;BME280_humidity;BME280_pressure;Samples;Min_cycle;Max_cycle;Signal;HPM_P1;HPM_P2
2021/10/13 00:02:03;;;;;;;17.50;9.10;;;;;;;;;;5094783;28;20039;-75
2021/10/13 00:04:28;;;;;;;17.27;10.77;;;;;;;;;;5094734;28;20032;-76
2021/10/13 00:06:54;;;;;;;13.70;9.73;;;;;;;;;;5095222;28;20032;-76
2021/10/13 00:09:19;;;;;;;17.20;9.27;;;;;;;;;;5095114;28;20036;-75
2021/10/13 00:11:44;;;;;;;13.80;9.88;;;;;;;;;;5108738;28;20032;-77
2021/10/13 00:14:10;;;;;;;13.52;9.13;;;;;;;;;;5112439;28;20134;-76
2021/10/13 00:16:36;;;;;;;12.65;9.60;;;;;;;;;;5104989;28;20036;-76
2021/10/13 00:19:02;;;;;;;19.17;9.35;;;;;;;;;;5100626;28;20500;-77
2021/10/13 00:21:28;;;;;;;18.45;10.52;;;;;;;;;;5077349;28;20028;-77
2021/10/13 00:23:53;;;;;;;15.07;10.80;;;;;;;;;;5095804;28;20046;-77
2021/10/13 00:26:19;;;;;;;14.55;10.80;;;;;;;;;;5096018;28;20607;-77
2021/10/13 00:28:44;;;;;;;15.48;9.43;;;;;;;;;;5095198;28;20443;-77
2021/10/13 00:31:10;;;;;;;13.57;10.32;;;;;;;;;;5095160;28;20115;-76
2021/10/13 00:33:35;;;;;;;14.15;11.55;;;;;;;;;;5094526;28;20409;-77
2021/10/13 00:36:00;;;;;;;27.23;14.88;;;;;;;;;;5075976;28;20082;-77
2021/10/13 00:38:26;;;;;;;20.95;10.48;;;;;;;;;;5094189;28;20062;-76
2021/10/13 00:40:52;;;;;;;15.77;8.50;;;;;;;;;;5094445;28;20027;-76
2021/10/13 00:43:17;;;;;;;12.20;9.45;;;;;;;;;;5076184;28;20043;-77
2021/10/13 00:45:43;;;;;;;14.15;9.40;;;;;;;;;;5076091;28;20841;-77
2021/10/13 00:48:08;;;;;;;15.13;9.43;;;;;;;;;;5094125;28;20036;-76
2021/10/13 00:50:34;;;;;;;14.32;9.85;;;;;;;;;;5093437;28;20098;-77
2021/10/13 00:52:59;;;;;;;15.82;10.52;;;;;;;;;;5094201;28;20032;-77
2021/10/13 00:55:25;;;;;;;17.52;9.98;;;;;;;;;;5093893;28;20065;-78
2021/10/13 00:57:51;;;;;;;15.07;10.15;;;;;;;;;;5094224;28;20032;-77
2021/10/13 01:00:21;;;;;;;13.38;8.32;;;;;;;;;;5093676;28;20032;-76
2021/10/13 01:03:07;;;;;;;;;;;;;;;;;;5094231;28;20036;-77
2021/10/13 01:06:04;;;;;;;12.32;9.13;;;;;;;;;;5058132;28;19916;-77
2021/10/13 01:08:40;;;;;;;12.70;9.43;;;;;;;;;;5022918;28;20040;-76
2021/10/13 01:11:37;;;;;;;12.68;8.20;;;;;;;;;;5093761;28;20089;-76
2021/10/13 01:14:41;;;;;;;12.98;9.15;;;;;;;;;;5093845;28;20040;-76
2021/10/13 01:17:25;;;;;;;11.63;8.88;;;;;;;;;;5093498;28;20034;-77
2021/10/13 01:19:58;;;;;;;16.20;10.80;;;;;;;;;;5093797;28;20400;-77
2021/10/13 01:22:59;;;;;;;13.18;9.05;;;;;;;;;;5093624;28;20082;-77
2021/10/13 01:26:13;;;;;;;12.73;9.00;;;;;;;;;;5093563;28;20129;-77
2021/10/13 01:28:42;;;;;;;13.90;8.48;;;;;;;;;;5029244;28;20126;-77
2021/10/13 01:31:22;;;;;;;12.63;8.52;;;;;;;;;;5093077;28;20031;-77
2021/10/13 01:33:57;;;;;;;13.75;7.57;;;;;;;;;;5092977;28;20032;-76
2021/10/13 01:36:28;;;;;;;14.55;8.02;;;;;;;;;;5093152;28;20088;-76
2021/10/13 01:38:56;;;;;;;13.35;8.00;;;;;;;;;;5093150;28;20057;-76
2021/10/13 01:41:24;;;;;;;13.60;8.60;;;;;;;;;;5093152;28;20043;-76
2021/10/13 01:43:52;;;;;;;12.68;8.02;;;;;;;;;;5093226;28;20054;-77
2021/10/13 01:46:20;;;;;;;11.40;7.40;;;;;;;;;;5093030;28;20097;-75
2021/10/13 01:48:46;;;;;;;12.55;8.05;;;;;;;;;;5092578;28;20052;-77
2021/10/13 01:51:14;;;;;;;14.45;8.63;;;;;;;;;;5092636;28;20034;-76
2021/10/13 01:53:41;;;;;;;15.63;10.20;;;;;;;;;;5092596;28;20043;-76
2021/10/13 01:56:08;;;;;;;19.70;11.88;;;;;;;;;;5092883;28;20408;-77
2021/10/13 01:58:35;;;;;;;20.70;11.02;;;;;;;;;;5092625;28;20038;-76
2021/10/13 02:01:02;;;;;;;25.25;13.50;;;;;;;;;;5091472;28;20511;-75
2021/10/13 02:03:30;;;;;;;21.08;11.60;;;;;;;;;;5074140;28;20497;-76
2021/10/13 02:06:00;;;;;;;16.58;9.70;;;;;;;;;;5074229;28;20039;-76
2021/10/13 02:08:28;;;;;;;14.23;9.07;;;;;;;;;;5074290;28;20031;-76
2021/10/13 02:10:56;;;;;;;14.30;9.20;;;;;;;;;;5092545;28;20035;-75
2021/10/13 02:13:23;;;;;;;17.38;9.90;;;;;;;;;;5092569;28;20036;-76
2021/10/13 02:15:50;;;;;;;12.52;8.55;;;;;;;;;;5092361;28;20468;-77
2021/10/13 02:18:23;;;;;;;15.18;8.55;;;;;;;;;;5092205;28;20662;-77
2021/10/13 02:20:48;;;;;;;19.77;12.07;;;;;;;;;;5092013;28;20028;-77
2021/10/13 02:23:15;;;;;;;14.48;8.52;;;;;;;;;;5092173;28;20206;-77
2021/10/13 02:25:46;;;;;;;14.23;9.45;;;;;;;;;;5092267;28;20076;-77
2021/10/13 02:28:17;;;;;;;11.65;8.60;;;;;;;;;;5092183;28;20118;-76
2021/10/13 02:30:44;;;;;;;13.77;8.02;;;;;;;;;;5091888;28;20066;-77
2021/10/13 02:33:10;;;;;;;13.02;7.85;;;;;;;;;;5092255;28;20064;-75
2021/10/13 02:35:35;;;;;;;11.75;8.00;;;;;;;;;;5092446;28;20089;-76
2021/10/13 02:38:01;;;;;;;14.23;7.68;;;;;;;;;;5073733;28;20432;-76
2021/10/13 02:40:26;;;;;;;13.30;9.32;;;;;;;;;;5091638;28;20039;-76
2021/10/13 02:42:52;;;;;;;13.15;9.05;;;;;;;;;;5092045;28;20059;-77
2021/10/13 02:45:18;;;;;;;13.20;8.05;;;;;;;;;;5073553;28;20504;-76
2021/10/13 02:47:53;;;;;;;19.83;10.73;;;;;;;;;;5091656;28;20035;-78
2021/10/13 02:50:40;;;;;;;12.95;9.80;;;;;;;;;;5073176;28;20141;-76
2021/10/13 02:53:21;;;;;;;11.25;8.43;;;;;;;;;;5091647;28;20042;-77
2021/10/13 02:55:57;;;;;;;16.20;10.20;;;;;;;;;;5091433;28;20032;-76
2021/10/13 02:58:47;;;;;;;12.93;7.60;;;;;;;;;;5091792;28;20039;-77
2021/10/13 03:01:16;;;;;;;15.18;9.63;;;;;;;;;;5091522;28;20077;-75
2021/10/13 03:03:53;;;;;;;12.45;8.65;;;;;;;;;;5073354;28;20028;-76
2021/10/13 03:06:21;;;;;;;12.02;8.27;;;;;;;;;;5091359;28;20123;-75
2021/10/13 03:08:49;;;;;;;12.70;9.02;;;;;;;;;;5073208;28;20962;-77
2021/10/13 03:11:17;;;;;;;11.40;7.57;;;;;;;;;;5091698;28;20040;-76
2021/10/13 03:13:46;;;;;;;13.23;9.20;;;;;;;;;;5091147;28;20080;-78
2021/10/13 03:16:12;;;;;;;12.63;7.95;;;;;;;;;;5089900;28;20047;-76
2021/10/13 03:18:40;;;;;;;14.25;8.57;;;;;;;;;;5091206;28;20405;-76
2021/10/13 03:21:06;;;;;;;13.38;8.30;;;;;;;;;;5072307;28;20065;-76
2021/10/13 03:23:32;;;;;;;15.77;10.48;;;;;;;;;;5091131;28;20374;-76
2021/10/13 03:26:11;;;;;;;16.98;9.80;;;;;;;;;;5091017;28;20400;-76
2021/10/13 03:28:39;;;;;;;14.38;9.52;;;;;;;;;;5091053;28;20062;-76
2021/10/13 03:31:05;;;;;;;14.98;8.50;;;;;;;;;;5090986;28;20066;-75
2021/10/13 03:33:32;;;;;;;12.23;8.75;;;;;;;;;;5091060;28;20035;-77
2021/10/13 03:35:58;;;;;;;15.10;11.38;;;;;;;;;;5072906;28;20040;-76
2021/10/13 03:38:23;;;;;;;15.13;8.52;;;;;;;;;;5091241;28;20435;-76
2021/10/13 03:40:50;;;;;;;12.75;9.15;;;;;;;;;;5090518;28;20040;-77
2021/10/13 03:43:16;;;;;;;17.23;9.77;;;;;;;;;;5090937;28;20035;-76
2021/10/13 03:45:41;;;;;;;16.35;10.90;;;;;;;;;;5090818;28;20032;-75
2021/10/13 03:48:06;;;;;;;15.93;10.85;;;;;;;;;;5091095;28;20118;-75
2021/10/13 03:50:32;;;;;;;13.73;10.23;;;;;;;;;;5090636;28;20048;-76
2021/10/13 03:52:57;;;;;;;15.40;12.38;;;;;;;;;;5090929;28;20039;-78
2021/10/13 03:55:24;;;;;;;14.25;10.02;;;;;;;;;;5091068;28;20036;-78
2021/10/13 03:57:50;;;;;;;15.70;10.05;;;;;;;;;;5091538;28;20122;-77
2021/10/13 04:00:18;;;;;;;15.68;10.95;;;;;;;;;;5091198;28;20119;-75
2021/10/13 04:02:44;;;;;;;15.73;11.05;;;;;;;;;;5091198;28;20496;-76
2021/10/13 04:05:10;;;;;;;14.98;11.65;;;;;;;;;;5091348;28;20096;-76
2021/10/13 04:07:36;;;;;;;16.25;11.00;;;;;;;;;;5091075;28;20176;-77
2021/10/13 04:10:03;;;;;;;15.48;10.27;;;;;;;;;;5091091;28;20035;-76
2021/10/13 04:12:29;;;;;;;12.95;9.40;;;;;;;;;;5072026;28;20078;-76
2021/10/13 04:14:55;;;;;;;16.35;10.50;;;;;;;;;;5091302;28;20106;-78
2021/10/13 04:17:20;;;;;;;17.27;11.18;;;;;;;;;;5091168;28;20062;-76
2021/10/13 04:19:45;;;;;;;12.40;9.23;;;;;;;;;;5091090;28;20442;-77
2021/10/13 04:22:11;;;;;;;14.73;10.73;;;;;;;;;;5091096;28;20042;-77
2021/10/13 04:24:36;;;;;;;19.35;10.95;;;;;;;;;;5074598;28;20112;-77
2021/10/13 04:27:02;;;;;;;22.77;12.13;;;;;;;;;;5094900;28;20033;-79
2021/10/13 04:29:27;;;;;;;18.25;11.65;;;;;;;;;;5094478;28;20035;-78
2021/10/13 04:31:53;;;;;;;14.85;10.25;;;;;;;;;;5094579;28;20024;-77
2021/10/13 04:34:18;;;;;;;18.02;10.82;;;;;;;;;;5094303;28;20074;-76
2021/10/13 04:36:43;;;;;;;14.15;10.93;;;;;;;;;;5094064;28;20028;-77
2021/10/13 04:39:09;;;;;;;14.55;11.40;;;;;;;;;;5093875;28;20040;-76
2021/10/13 04:41:34;;;;;;;13.52;9.90;;;;;;;;;;5093556;28;20032;-77
2021/10/13 04:44:00;;;;;;;17.05;11.70;;;;;;;;;;5093950;28;20100;-78
2021/10/13 04:46:26;;;;;;;16.98;9.95;;;;;;;;;;5093499;28;20040;-70
2021/10/13 04:48:51;;;;;;;20.65;11.60;;;;;;;;;;5093719;28;20047;-69
2021/10/13 04:51:16;;;;;;;17.50;11.30;;;;;;;;;;5093295;28;20489;-71
2021/10/13 04:53:42;;;;;;;13.82;10.02;;;;;;;;;;5093304;28;20073;-71
2021/10/13 04:56:08;;;;;;;17.77;10.85;;;;;;;;;;5093348;28;20469;-70
2021/10/13 04:58:33;;;;;;;15.43;10.30;;;;;;;;;;5093082;28;20043;-78
2021/10/13 05:00:59;;;;;;;17.42;13.32;;;;;;;;;;5093565;28;20425;-78
2021/10/13 05:03:24;;;;;;;15.85;10.40;;;;;;;;;;5093683;28;20506;-78
2021/10/13 05:05:49;;;;;;;16.98;10.38;;;;;;;;;;5093682;28;20032;-76
2021/10/13 05:08:15;;;;;;;18.45;12.95;;;;;;;;;;5093433;28;20454;-78
2021/10/13 05:10:40;;;;;;;16.45;11.23;;;;;;;;;;5092805;28;20035;-82
2021/10/13 05:13:06;;;;;;;20.00;12.70;;;;;;;;;;5093641;28;20039;-76
2021/10/13 05:15:32;;;;;;;19.23;12.00;;;;;;;;;;5093799;28;20036;-78
2021/10/13 05:17:57;;;;;;;19.20;11.85;;;;;;;;;;5094081;28;20028;-78
2021/10/13 05:20:22;;;;;;;16.77;12.23;;;;;;;;;;5093302;28;20532;-76
2021/10/13 05:22:48;;;;;;;17.10;11.15;;;;;;;;;;5093214;28;20036;-76
2021/10/13 05:25:14;;;;;;;15.48;10.05;;;;;;;;;;5092158;28;20782;-77
2021/10/13 05:27:39;;;;;;;19.77;11.70;;;;;;;;;;5095841;28;20028;-75
2021/10/13 05:30:05;;;;;;;18.35;11.02;;;;;;;;;;5110190;28;20095;-77
2021/10/13 05:32:30;;;;;;;13.93;9.73;;;;;;;;;;5108132;28;20114;-78
2021/10/13 05:34:56;;;;;;;17.50;11.98;;;;;;;;;;5105464;28;20126;-78
2021/10/13 05:37:21;;;;;;;17.75;11.60;;;;;;;;;;5094642;28;20032;-78
2021/10/13 05:39:47;;;;;;;15.02;11.90;;;;;;;;;;5093817;28;20028;-76
2021/10/13 05:42:13;;;;;;;16.02;9.95;;;;;;;;;;5075416;28;20043;-77
2021/10/13 05:44:39;;;;;;;16.58;12.52;;;;;;;;;;5094016;28;20036;-78
2021/10/13 05:47:04;;;;;;;15.50;11.15;;;;;;;;;;5092941;28;20449;-78
2021/10/13 05:49:29;;;;;;;17.08;11.48;;;;;;;;;;5092334;28;20469;-77
2021/10/13 05:51:55;;;;;;;17.83;13.50;;;;;;;;;;5091877;28;20386;-76
2021/10/13 05:54:20;;;;;;;16.25;12.15;;;;;;;;;;5092587;28;20028;-77
2021/10/13 05:56:50;;;;;;;22.85;12.07;;;;;;;;;;5091665;28;20074;-77
2021/10/13 05:59:15;;;;;;;15.75;10.70;;;;;;;;;;5092050;28;20036;-77
2021/10/13 06:01:41;;;;;;;15.65;12.10;;;;;;;;;;5092213;28;20043;-76
2021/10/13 06:04:06;;;;;;;19.05;13.35;;;;;;;;;;5092359;28;20045;-77
2021/10/13 06:06:32;;;;;;;18.55;11.88;;;;;;;;;;5091394;28;20405;-76
2021/10/13 06:08:57;;;;;;;20.48;12.65;;;;;;;;;;5091883;28;20111;-74
2021/10/13 06:11:22;;;;;;;17.85;12.00;;;;;;;;;;5092249;28;20093;-75
2021/10/13 06:13:49;;;;;;;19.67;13.48;;;;;;;;;;5092024;28;20028;-76
2021/10/13 06:16:14;;;;;;;17.30;12.60;;;;;;;;;;5091750;28;20032;-75
2021/10/13 06:18:40;;;;;;;15.63;10.70;;;;;;;;;;5091835;28;20038;-76
2021/10/13 06:21:05;;;;;;;21.95;14.45;;;;;;;;;;5091654;28;20032;-75
2021/10/13 06:23:31;;;;;;;18.48;12.63;;;;;;;;;;5073059;28;20032;-76
2021/10/13 06:25:56;;;;;;;23.33;14.82;;;;;;;;;;5091720;28;20032;-76
2021/10/13 06:28:22;;;;;;;15.73;12.52;;;;;;;;;;5092075;28;20044;-75
2021/10/13 06:30:47;;;;;;;17.33;11.98;;;;;;;;;;5091778;28;20560;-75
2021/10/13 06:33:13;;;;;;;16.33;11.77;;;;;;;;;;5073557;28;20035;-78
2021/10/13 06:35:38;;;;;;;16.00;11.35;;;;;;;;;;5091722;28;20401;-75
2021/10/13 06:38:04;;;;;;;18.92;11.95;;;;;;;;;;5091918;28;20044;-77
2021/10/13 06:40:30;;;;;;;18.27;10.40;;;;;;;;;;5091643;28;20024;-78
2021/10/13 06:42:55;;;;;;;24.75;14.05;;;;;;;;;;5091405;28;20032;-81
2021/10/13 06:45:21;;;;;;;21.55;12.68;;;;;;;;;;5091672;28;20074;-77
2021/10/13 06:47:46;;;;;;;17.67;11.80;;;;;;;;;;5090608;28;20028;-75
2021/10/13 06:50:12;;;;;;;18.15;10.98;;;;;;;;;;5084238;28;20643;-77
2021/10/13 06:52:37;;;;;;;15.68;10.98;;;;;;;;;;5069318;28;20040;-75
2021/10/13 06:55:04;;;;;;;15.30;11.75;;;;;;;;;;5071158;28;20035;-76
2021/10/13 06:57:30;;;;;;;20.20;11.20;;;;;;;;;;5070025;28;20111;-76
2021/10/13 06:59:55;;;;;;;20.80;12.27;;;;;;;;;;5051776;28;20135;-77
2021/10/13 07:02:20;;;;;;;17.13;11.20;;;;;;;;;;5069767;28;20059;-79
2021/10/13 07:04:46;;;;;;;14.77;10.25;;;;;;;;;;5069398;28;20036;-74
2021/10/13 07:07:11;;;;;;;20.92;13.63;;;;;;;;;;5069722;28;20377;-73
2021/10/13 07:09:37;;;;;;;16.88;9.52;;;;;;;;;;5051812;28;20101;-72
2021/10/13 07:12:02;;;;;;;16.65;11.30;;;;;;;;;;5051472;28;20108;-73
2021/10/13 07:14:28;;;;;;;19.95;14.73;;;;;;;;;;5069843;28;20119;-72
2021/10/13 07:16:53;;;;;;;18.88;12.60;;;;;;;;;;5070784;28;20106;-73
2021/10/13 07:19:18;;;;;;;17.60;11.45;;;;;;;;;;5070005;28;20053;-73
2021/10/13 07:21:44;;;;;;;17.05;12.63;;;;;;;;;;5069700;28;20101;-73
2021/10/13 07:24:09;;;;;;;18.67;11.20;;;;;;;;;;5070140;28;20045;-76
2021/10/13 07:26:35;;;;;;;15.45;9.27;;;;;;;;;;5070287;28;20095;-73
2021/10/13 07:29:02;;;;;;;18.60;11.18;;;;;;;;;;5070680;28;20032;-77
2021/10/13 07:31:28;;;;;;;17.45;10.77;;;;;;;;;;5070654;28;20029;-77
2021/10/13 07:33:54;;;;;;;18.27;11.10;;;;;;;;;;5070362;28;20037;-81
2021/10/13 07:36:20;;;;;;;16.55;10.25;;;;;;;;;;5070614;28;20498;-80
2021/10/13 07:38:46;;;;;;;22.05;11.77;;;;;;;;;;5070451;28;20467;-78
2021/10/13 07:41:17;;;;;;;18.65;11.32;;;;;;;;;;5070724;28;20059;-80
2021/10/13 07:43:42;;;;;;;22.45;12.10;;;;;;;;;;5055330;28;20032;-79
2021/10/13 07:46:14;;;;;;;14.43;10.75;;;;;;;;;;5072101;28;20082;-82
2021/10/13 07:48:45;;;;;;;16.13;11.93;;;;;;;;;;5054178;28;20052;-81
2021/10/13 07:51:11;;;;;;;18.23;11.20;;;;;;;;;;5074747;28;20048;-79
2021/10/13 07:53:37;;;;;;;18.65;10.43;;;;;;;;;;5070893;28;20033;-79
2021/10/13 07:56:02;;;;;;;23.90;11.07;;;;;;;;;;5070771;28;20038;-80
2021/10/13 07:58:28;;;;;;;20.33;11.45;;;;;;;;;;5071211;28;20032;-82
2021/10/13 08:00:54;;;;;;;15.77;10.38;;;;;;;;;;5075188;28;20119;-81
2021/10/13 08:03:20;;;;;;;16.85;9.80;;;;;;;;;;5056891;28;20036;-82
2021/10/13 08:05:45;;;;;;;18.77;11.75;;;;;;;;;;5075248;28;20031;-77
2021/10/13 08:08:11;;;;;;;17.42;10.90;;;;;;;;;;5074323;28;20497;-82
2021/10/13 08:10:36;;;;;;;15.55;10.95;;;;;;;;;;5074437;28;20036;-80
2021/10/13 08:13:01;;;;;;;16.52;10.50;;;;;;;;;;5074081;28;20056;-80
2021/10/13 08:15:27;;;;;;;12.95;9.25;;;;;;;;;;5074509;28;20040;-79
2021/10/13 08:17:53;;;;;;;14.02;9.27;;;;;;;;;;5074533;28;20039;-79
2021/10/13 08:20:19;;;;;;;15.73;10.90;;;;;;;;;;5073391;28;20054;-79
2021/10/13 08:22:46;;;;;;;18.50;10.88;;;;;;;;;;5073800;28;20127;-79
2021/10/13 08:25:13;;;;;;;16.70;10.65;;;;;;;;;;5073677;28;20036;-79
2021/10/13 08:27:38;;;;;;;16.15;10.88;;;;;;;;;;5073238;28;20029;-77
2021/10/13 08:30:05;;;;;;;18.60;10.48;;;;;;;;;;5073434;28;20111;-77
2021/10/13 08:32:30;;;;;;;15.63;10.48;;;;;;;;;;5073359;28;20059;-78
2021/10/13 08:34:56;;;;;;;15.65;10.38;;;;;;;;;;5072976;28;20553;-77
2021/10/13 08:37:21;;;;;;;16.85;11.85;;;;;;;;;;5073882;28;20383;-77
2021/10/13 08:39:48;;;;;;;15.60;10.68;;;;;;;;;;5073327;28;20074;-78
2021/10/13 08:42:14;;;;;;;12.88;9.45;;;;;;;;;;5072647;28;20040;-75
2021/10/13 08:44:43;;;;;;;13.05;10.70;;;;;;;;;;5056940;28;20090;-79
2021/10/13 08:47:11;;;;;;;16.50;10.20;;;;;;;;;;5073495;28;20036;-77
2021/10/13 08:49:39;;;;;;;20.25;10.05;;;;;;;;;;5072154;28;20143;-78
2021/10/13 08:52:08;;;;;;;17.17;11.80;;;;;;;;;;5072706;28;20048;-77
2021/10/13 08:54:34;;;;;;;18.25;10.35;;;;;;;;;;5073187;28;20499;-77
2021/10/13 08:56:59;;;;;;;17.48;11.95;;;;;;;;;;5072003;28;20036;-78
2021/10/13 08:59:40;;;;;;;14.68;10.05;;;;;;;;;;5072396;28;20110;-75
2021/10/13 09:02:07;;;;;;;16.33;10.98;;;;;;;;;;5072911;28;20059;-78
2021/10/13 09:04:32;;;;;;;15.40;10.63;;;;;;;;;;5072534;28;20036;-77
2021/10/13 09:07:04;;;;;;;15.70;9.65;;;;;;;;;;5055533;28;20036;-78
2021/10/13 09:09:31;;;;;;;15.48;9.57;;;;;;;;;;5072602;28;20032;-78
2021/10/13 09:11:57;;;;;;;13.88;8.90;;;;;;;;;;5072258;28;20043;-78
2021/10/13 09:14:27;;;;;;;15.15;9.20;;;;;;;;;;5072950;28;20037;-78
2021/10/13 09:16:54;;;;;;;12.40;8.20;;;;;;;;;;5072687;28;20033;-78
2021/10/13 09:19:22;;;;;;;14.43;8.70;;;;;;;;;;5072416;28;20432;-79
2021/10/13 09:22:04;;;;;;;12.55;8.13;;;;;;;;;;5072748;28;20474;-78
2021/10/13 09:24:32;;;;;;;9.32;5.65;;;;;;;;;;5072827;28;20036;-78
2021/10/13 09:27:29;;;;;;;13.40;9.23;;;;;;;;;;5073090;28;20036;-82
2021/10/13 09:30:28;;;;;;;12.73;7.93;;;;;;;;;;5072777;28;20074;-78
2021/10/13 09:32:53;;;;;;;10.75;7.90;;;;;;;;;;5071146;28;20441;-77
2021/10/13 09:35:29;;;;;;;13.73;8.88;;;;;;;;;;5073179;28;20036;-76
2021/10/13 09:37:54;;;;;;;16.30;9.13;;;;;;;;;;5072628;28;20051;-77
2021/10/13 09:40:31;;;;;;;15.13;9.15;;;;;;;;;;5072256;28;20545;-77
2021/10/13 09:43:00;;;;;;;17.38;12.23;;;;;;;;;;5072043;28;20046;-79
2021/10/13 09:45:33;;;;;;;11.93;8.60;;;;;;;;;;5064756;28;20045;-77
2021/10/13 09:48:06;;;;;;;17.92;11.82;;;;;;;;;;5051657;28;20032;-78
2021/10/13 09:50:45;;;;;;;13.13;9.30;;;;;;;;;;5021401;28;20056;-77
2021/10/13 09:53:19;;;;;;;14.07;7.47;;;;;;;;;;4994549;28;20033;-78
2021/10/13 09:55:45;;;;;;;11.25;7.90;;;;;;;;;;5011807;28;20053;-77
2021/10/13 09:58:31;;;;;;;14.60;9.32;;;;;;;;;;4995411;28;20041;-75
2021/10/13 10:01:14;;;;;;;13.05;8.88;;;;;;;;;;5012759;28;20044;-78
2021/10/13 10:03:42;;;;;;;16.67;9.95;;;;;;;;;;4994058;28;20431;-77
2021/10/13 10:06:09;;;;;;;17.85;10.73;;;;;;;;;;5012296;28;20045;-76
2021/10/13 10:08:50;;;;;;;15.77;9.13;;;;;;;;;;5012647;28;20089;-77
2021/10/13 10:11:29;;;;;;;18.17;10.55;;;;;;;;;;5011881;28;20038;-77
2021/10/13 10:13:55;;;;;;;18.02;11.43;;;;;;;;;;5012061;28;20522;-79
2021/10/13 10:16:36;;;;;;;14.05;8.98;;;;;;;;;;5012401;28;20124;-78
2021/10/13 10:19:22;;;;;;;14.38;9.68;;;;;;;;;;5011723;28;20029;-78
2021/10/13 10:21:59;;;;;;;13.52;9.82;;;;;;;;;;5011930;28;20507;-78
2021/10/13 10:24:30;;;;;;;16.15;10.27;;;;;;;;;;5011834;28;20574;-79
2021/10/13 10:27:33;;;;;;;14.55;10.68;;;;;;;;;;4994225;28;20510;-78
2021/10/13 10:30:19;;;;;;;15.23;10.00;;;;;;;;;;5011875;28;20045;-78
2021/10/13 10:32:53;;;;;;;15.57;9.43;;;;;;;;;;4993408;28;20045;-79
2021/10/13 10:35:19;;;;;;;14.52;10.25;;;;;;;;;;5012733;28;20045;-77
2021/10/13 10:37:46;;;;;;;14.95;9.18;;;;;;;;;;5011874;28;20036;-77
2021/10/13 10:40:19;;;;;;;14.75;9.32;;;;;;;;;;4994437;28;20503;-80
2021/10/13 10:43:06;;;;;;;14.48;10.13;;;;;;;;;;5012330;28;20068;-80
2021/10/13 10:45:50;;;;;;;12.15;9.82;;;;;;;;;;5026634;28;20052;-78
2021/10/13 10:48:16;;;;;;;15.80;10.93;;;;;;;;;;5066347;28;20101;-76
2021/10/13 10:50:47;;;;;;;15.73;11.35;;;;;;;;;;5051706;28;20077;-77
2021/10/13 10:53:44;;;;;;;15.07;10.70;;;;;;;;;;5021199;28;20053;-78
2021/10/13 10:56:25;;;;;;;17.23;10.65;;;;;;;;;;5011003;28;20025;-78
2021/10/13 10:59:08;;;;;;;18.25;11.65;;;;;;;;;;5015002;28;20038;-78
2021/10/13 11:01:35;;;;;;;16.60;11.30;;;;;;;;;;5032258;28;20041;-78
2021/10/13 11:04:11;;;;;;;16.65;11.30;;;;;;;;;;5030994;28;20029;-78
2021/10/13 11:06:39;;;;;;;17.70;11.02;;;;;;;;;;5030848;28;20041;-77
2021/10/13 11:09:09;;;;;;;15.25;11.68;;;;;;;;;;5030262;28;20059;-77
2021/10/13 11:11:41;;;;;;;16.30;11.60;;;;;;;;;;5030799;28;20455;-77
2021/10/13 11:14:23;;;;;;;18.52;11.45;;;;;;;;;;5012960;28;20037;-78
2021/10/13 11:16:50;;;;;;;17.75;12.50;;;;;;;;;;5013072;28;20041;-78
2021/10/13 11:19:19;;;;;;;18.70;11.10;;;;;;;;;;5031159;28;20033;-77
2021/10/13 11:21:45;;;;;;;16.02;9.93;;;;;;;;;;5030388;28;20049;-77
2021/10/13 11:24:16;;;;;;;15.10;10.85;;;;;;;;;;5030158;28;20061;-77
2021/10/13 11:26:44;;;;;;;16.50;10.60;;;;;;;;;;5013102;28;20092;-77
2021/10/13 11:29:24;;;;;;;19.10;12.00;;;;;;;;;;5012934;28;20075;-77
2021/10/13 11:32:08;;;;;;;16.00;11.02;;;;;;;;;;5030380;28;20038;-77
2021/10/13 11:34:34;;;;;;;19.58;11.18;;;;;;;;;;5034029;28;20037;-76
2021/10/13 11:37:00;;;;;;;20.90;11.95;;;;;;;;;;5034823;28;20499;-77
2021/10/13 11:39:31;;;;;;;17.92;10.68;;;;;;;;;;5033739;28;20033;-78
2021/10/13 11:41:59;;;;;;;16.17;10.80;;;;;;;;;;5034404;28;20042;-78
2021/10/13 11:44:26;;;;;;;19.35;12.18;;;;;;;;;;5034314;28;20037;-77
2021/10/13 11:47:01;;;;;;;18.45;11.65;;;;;;;;;;5016537;28;20042;-79
2021/10/13 11:49:27;;;;;;;20.23;12.93;;;;;;;;;;5054417;28;20053;-78
2021/10/13 11:52:18;;;;;;;21.60;13.35;;;;;;;;;;5054569;28;20499;-77
2021/10/13 11:54:44;;;;;;;19.80;12.48;;;;;;;;;;5050076;28;20094;-79
2021/10/13 11:57:13;;;;;;;19.48;12.30;;;;;;;;;;5054065;28;20441;-77
2021/10/13 11:59:38;;;;;;;15.70;9.95;;;;;;;;;;5036710;28;20115;-77
2021/10/13 12:02:17;;;;;;;18.40;12.40;;;;;;;;;;5054280;28;20132;-78
2021/10/13 12:04:48;;;;;;;15.77;12.07;;;;;;;;;;5036461;28;20029;-79
2021/10/13 12:07:18;;;;;;;17.25;10.68;;;;;;;;;;5054362;28;20044;-80
2021/10/13 12:10:03;;;;;;;18.88;12.32;;;;;;;;;;5053690;28;20041;-77
2021/10/13 12:12:29;;;;;;;17.58;12.52;;;;;;;;;;5054312;28;20025;-78
2021/10/13 12:14:55;;;;;;;19.27;11.82;;;;;;;;;;5054166;28;20040;-78
2021/10/13 12:17:27;;;;;;;16.90;11.30;;;;;;;;;;5053600;28;20036;-81
2021/10/13 12:19:53;;;;;;;19.38;12.27;;;;;;;;;;5054298;28;20052;-78
2021/10/13 12:22:19;;;;;;;18.67;11.85;;;;;;;;;;5036232;28;20068;-77
2021/10/13 12:24:44;;;;;;;19.08;10.98;;;;;;;;;;5053686;28;20083;-77
2021/10/13 12:27:10;;;;;;;19.58;12.23;;;;;;;;;;5053933;28;20363;-77
2021/10/13 12:29:42;;;;;;;15.73;11.07;;;;;;;;;;5054055;28;20556;-78
2021/10/13 12:32:17;;;;;;;20.75;12.63;;;;;;;;;;5035478;28;20028;-77
2021/10/13 12:34:43;;;;;;;22.17;10.40;;;;;;;;;;5035930;28;20040;-77
2021/10/13 12:37:09;;;;;;;17.58;10.30;;;;;;;;;;5054035;28;20040;-78
2021/10/13 12:39:34;;;;;;;15.93;10.00;;;;;;;;;;5053670;28;20130;-77
2021/10/13 12:42:11;;;;;;;16.38;10.75;;;;;;;;;;5053948;28;20055;-77
2021/10/13 12:44:37;;;;;;;15.77;11.98;;;;;;;;;;5051594;28;20511;-77
2021/10/13 12:47:15;;;;;;;18.05;11.40;;;;;;;;;;5019914;28;20043;-78
2021/10/13 12:49:45;;;;;;;22.58;11.48;;;;;;;;;;5025990;28;20088;-78
2021/10/13 12:52:26;;;;;;;18.58;10.93;;;;;;;;;;5073312;28;20082;-76
2021/10/13 12:54:56;;;;;;;18.58;10.20;;;;;;;;;;5055057;28;20040;-77
2021/10/13 12:57:26;;;;;;;15.63;9.65;;;;;;;;;;5073462;28;20036;-76
2021/10/13 12:59:53;;;;;;;15.00;10.27;;;;;;;;;;5073390;28;20037;-80
2021/10/13 13:02:19;;;;;;;14.00;9.32;;;;;;;;;;5072871;28;20029;-82
2021/10/13 13:04:45;;;;;;;17.33;9.77;;;;;;;;;;5074935;28;20036;-79
2021/10/13 13:07:12;;;;;;;17.70;11.30;;;;;;;;;;5073027;28;20025;-81
2021/10/13 13:09:40;;;;;;;21.85;12.45;;;;;;;;;;5072660;28;20040;-78
2021/10/13 13:12:06;;;;;;;20.73;15.13;;;;;;;;;;5055303;28;20437;-78
2021/10/13 13:14:31;;;;;;;19.17;14.30;;;;;;;;;;5072729;28;20047;-79
2021/10/13 13:16:57;;;;;;;17.60;11.98;;;;;;;;;;5054610;28;20044;-78
2021/10/13 13:19:23;;;;;;;15.55;11.57;;;;;;;;;;5055145;28;20071;-78
2021/10/13 13:21:49;;;;;;;16.38;11.20;;;;;;;;;;5055095;28;20408;-78
2021/10/13 13:24:16;;;;;;;19.05;13.18;;;;;;;;;;5072272;28;20495;-79
2021/10/13 13:26:42;;;;;;;21.95;12.20;;;;;;;;;;5054796;28;20036;-78
2021/10/13 13:29:07;;;;;;;17.35;11.43;;;;;;;;;;5055122;28;20551;-79
2021/10/13 13:31:33;;;;;;;18.65;13.38;;;;;;;;;;5072715;28;20029;-79
2021/10/13 13:33:59;;;;;;;17.10;10.55;;;;;;;;;;5054694;28;20036;-78
2021/10/13 13:36:24;;;;;;;17.17;8.43;;;;;;;;;;5055397;28;20036;-77
2021/10/13 13:38:51;;;;;;;18.55;10.70;;;;;;;;;;5072243;28;20043;-80
2021/10/13 13:41:17;;;;;;;20.85;11.57;;;;;;;;;;5072754;28;20044;-78
2021/10/13 13:43:43;;;;;;;18.95;11.15;;;;;;;;;;5072421;28;20564;-78
2021/10/13 13:46:13;;;;;;;15.25;12.13;;;;;;;;;;5072309;28;20081;-76
2021/10/13 13:48:39;;;;;;;;;;;;;;;;;;5055177;28;20070;-77
2021/10/13 13:51:05;;;;;;;16.85;11.93;;;;;;;;;;5072206;28;19920;-76
2021/10/13 13:53:30;;;;;;;16.40;10.05;;;;;;;;;;5093203;22;20044;-78
2021/10/13 13:55:56;;;;;;;13.77;9.05;;;;;;;;;;5092572;28;20527;-77
2021/10/13 13:58:22;;;;;;;14.77;10.85;;;;;;;;;;5092485;28;20481;-77
2021/10/13 14:00:49;;;;;;;15.10;8.73;;;;;;;;;;5092079;28;20115;-78
2021/10/13 14:03:14;;;;;;;18.35;11.07;;;;;;;;;;5080321;28;20138;-78
2021/10/13 14:05:40;;;;;;;19.33;9.85;;;;;;;;;;5071574;28;20029;-78
2021/10/13 14:08:06;;;;;;;18.27;10.25;;;;;;;;;;5071244;28;20494;-77
2021/10/13 14:10:31;;;;;;;17.15;11.43;;;;;;;;;;5071655;28;20043;-77
2021/10/13 14:12:57;;;;;;;16.13;10.57;;;;;;;;;;5071997;28;20036;-77
2021/10/13 14:15:24;;;;;;;22.88;9.43;;;;;;;;;;5071330;28;20037;-78
2021/10/13 14:17:49;;;;;;;17.05;10.90;;;;;;;;;;5072107;28;20075;-78
2021/10/13 14:20:14;;;;;;;15.73;9.90;;;;;;;;;;5053574;28;20066;-78
2021/10/13 14:22:40;;;;;;;19.45;10.68;;;;;;;;;;5071231;28;20128;-78
2021/10/13 14:25:06;;;;;;;13.50;8.40;;;;;;;;;;5071481;28;20123;-78
2021/10/13 14:27:32;;;;;;;14.38;9.10;;;;;;;;;;5071606;28;20440;-77
2021/10/13 14:29:57;;;;;;;15.80;11.13;;;;;;;;;;5070927;28;20081;-77
2021/10/13 14:32:23;;;;;;;15.07;8.73;;;;;;;;;;5071529;28;20056;-78